Time;durP1;ratioP1;P1;durP2;ratioP2;P2;SDS_P1;SDS_P2;PMS_P1;PMS_P2;Temp;Humidity;BMP_temperature;BMP_pressure;BME280_temperature;BME280_humidity;BME280_pressure;Samples;Min_cycle;Max_cycle;Signal;HPM_P1;HPM_P2
2024/05/01 00:00:37;;;;;;;9.95;5.47;;;;;;;15.24;37.08;97803.19;5403266;26;20018;-44
2024/05/01 00:03:08;;;;;;;7.75;4.63;;;;;;;15.06;37.34;97804.63;5404509;26;20534;-43
2024/05/01 00:05:35;;;;;;;11.43;5.97;;;;;;;14.98;37.42;97797.22;5403976;26;20011;-43
2024/05/01 00:08:05;;;;;;;10.10;5.72;;;;;;;14.95;37.56;97793.25;5405231;26;20011;-44
2024/05/01 00:10:32;;;;;;;7.22;4.70;;;;;;;14.98;37.48;97794.53;5396683;26;20668;-43
2024/05/01 00:13:04;;;;;;;6.93;5.07;;;;;;;15.02;37.80;97792.13;5400231;26;20026;-44
2024/05/01 00:15:31;;;;;;;8.27;5.18;;;;;;;15.02;37.38;97794.78;5403237;26;21184;-44
2024/05/01 00:18:00;;;;;;;7.03;4.40;;;;;;;15.02;37.59;97798.25;5404192;26;20105;-44
2024/05/01 00:20:27;;;;;;;9.50;4.78;;;;;;;15.05;37.32;97786.28;5396174;26;20003;-44
2024/05/01 00:22:58;;;;;;;8.25;4.90;;;;;;;15.04;37.37;97788.16;5403613;26;19995;-44
2024/05/01 00:25:27;;;;;;;9.98;5.05;;;;;;;14.92;37.29;97788.47;5296578;26;20017;-44
2024/05/01 00:27:54;;;;;;;10.80;4.93;;;;;;;14.75;37.59;97786.16;5289745;26;21099;-44
2024/05/01 00:30:26;;;;;;;7.18;4.97;;;;;;;14.57;37.98;97792.09;5288081;26;21076;-43
2024/05/01 00:32:53;;;;;;;8.10;4.68;;;;;;;14.62;38.07;97791.25;5294096;26;20376;-44
2024/05/01 00:35:23;;;;;;;6.95;4.32;;;;;;;14.66;37.78;97789.66;5296188;26;20433;-44
2024/05/01 00:37:50;;;;;;;6.93;4.70;;;;;;;14.66;38.09;97794.97;5292438;26;20302;-44
2024/05/01 00:40:20;;;;;;;8.30;5.18;;;;;;;14.71;37.71;97787.75;5293881;26;20058;-44
2024/05/01 00:42:53;;;;;;;7.85;5.13;;;;;;;14.75;37.71;97782.69;5306347;26;21953;-44
2024/05/01 00:45:20;;;;;;;6.60;3.92;;;;;;;14.72;37.90;97791.22;5403132;26;21663;-44
2024/05/01 00:47:54;;;;;;;8.48;4.32;;;;;;;14.71;37.87;97786.97;5404254;26;20469;-44
2024/05/01 00:50:24;;;;;;;7.88;4.90;;;;;;;14.75;37.86;97786.16;5392631;26;21563;-43
2024/05/01 00:52:56;;;;;;;6.20;4.07;;;;;;;14.65;38.00;97788.84;5398680;26;19996;-43
2024/05/01 00:55:25;;;;;;;8.48;4.97;;;;;;;14.43;37.98;97785.72;5398719;26;21427;-44
2024/05/01 00:57:57;;;;;;;7.70;5.35;;;;;;;14.31;38.16;97786.81;5399001;26;20376;-44
2024/05/01 01:00:24;;;;;;;7.68;6.38;;;;;;;14.25;38.71;97785.25;5398691;26;20003;-44
2024/05/01 01:02:56;;;;;;;8.77;4.93;;;;;;;14.18;38.59;97782.88;5400104;26;20476;-43
2024/05/01 01:05:23;;;;;;;7.90;5.22;;;;;;;14.24;38.57;97783.63;5398840;26;20007;-43
2024/05/01 01:07:53;;;;;;;6.05;4.70;;;;;;;14.26;38.87;97776.19;5399468;26;20004;-44
2024/05/01 01:10:20;;;;;;;7.93;4.75;;;;;;;14.30;38.83;97779.91;5400013;26;20018;-43
2024/05/01 01:12:49;;;;;;;9.15;5.43;;;;;;;14.32;38.63;97780.44;5394698;26;20004;-43
2024/05/01 01:15:16;;;;;;;7.63;4.55;;;;;;;14.32;38.33;97783.09;5396552;26;20018;-44
2024/05/01 01:17:47;;;;;;;8.85;4.80;;;;;;;14.35;38.79;97785.22;5398285;26;20020;-43
2024/05/01 01:20:17;;;;;;;7.07;4.93;;;;;;;14.34;38.49;97780.19;5396831;26;20016;-44
2024/05/01 01:22:51;;;;;;;8.65;5.45;;;;;;;14.20;38.92;97780.72;5397397;26;21581;-43
2024/05/01 01:25:18;;;;;;;10.57;5.78;;;;;;;14.14;38.84;97781.00;5398690;26;19999;-43
2024/05/01 01:27:47;;;;;;;8.93;5.05;;;;;;;14.11;38.91;97781.56;5397872;26;20018;-44
2024/05/01 01:30:17;;;;;;;7.53;4.85;;;;;;;14.05;39.15;97782.63;5400339;26;20908;-44
2024/05/01 01:32:44;;;;;;;7.43;5.60;;;;;;;14.07;38.87;97781.31;5397340;26;20524;-44
2024/05/01 01:35:13;;;;;;;7.82;5.53;;;;;;;14.10;38.73;97779.97;5395247;26;22729;-44
2024/05/01 01:37:40;;;;;;;7.18;4.57;;;;;;;14.11;38.91;97782.34;5397515;26;20450;-43
2024/05/01 01:40:14;;;;;;;9.02;4.43;;;;;;;14.14;38.44;97781.81;5400007;26;20022;-42
2024/05/01 01:42:40;;;;;;;8.25;5.35;;;;;;;14.15;38.37;97778.09;5397404;26;20010;-43
2024/05/01 01:45:10;;;;;;;9.75;4.97;;;;;;;14.04;38.76;97781.06;5398794;26;20007;-41
2024/05/01 01:47:37;;;;;;;6.50;4.60;;;;;;;14.04;38.95;97771.22;5398239;26;20453;-44
2024/05/01 01:50:07;;;;;;;6.22;4.85;;;;;;;14.05;38.75;97772.00;5399783;26;22290;-44
2024/05/01 01:52:34;;;;;;;10.15;4.65;;;;;;;14.05;38.50;97769.34;5396649;26;20511;-44
2024/05/01 01:55:04;;;;;;;6.15;4.70;;;;;;;14.07;38.63;97770.69;5398712;26;20396;-43
2024/05/01 01:57:33;;;;;;;6.43;4.45;;;;;;;14.06;38.26;97768.28;5397185;26;20014;-43
2024/05/01 02:00:04;;;;;;;4.95;4.03;;;;;;;14.02;38.68;97770.69;5397579;26;20033;-43
2024/05/01 02:02:31;;;;;;;7.78;4.95;;;;;;;13.99;38.66;97766.69;5395287;26;20020;-43
2024/05/01 02:05:01;;;;;;;7.07;4.45;;;;;;;13.99;38.85;97769.34;5399741;26;20072;-44
2024/05/01 02:07:28;;;;;;;7.88;4.43;;;;;;;13.98;38.70;97762.47;5395577;26;21026;-43
2024/05/01 02:09:57;;;;;;;6.47;4.45;;;;;;;14.00;38.76;97762.16;5394862;26;20010;-44
2024/05/01 02:12:24;;;;;;;5.88;4.78;;;;;;;13.98;38.67;97761.66;5399914;26;20448;-43
2024/05/01 02:14:58;;;;;;;8.57;5.03;;;;;;;13.95;38.79;97762.22;5403511;26;20112;-44
2024/05/01 02:17:24;;;;;;;6.68;4.40;;;;;;;13.93;38.59;97765.13;5256984;27;20112;-43
2024/05/01 02:19:54;;;;;;;7.57;4.53;;;;;;;13.86;38.94;97758.47;5256156;27;20089;-43
2024/05/01 02:22:21;;;;;;;6.22;4.75;;;;;;;13.78;38.80;97750.00;5257910;27;20025;-44
2024/05/01 02:24:51;;;;;;;6.63;4.07;;;;;;;13.79;38.97;97751.59;5257235;27;20006;-43
2024/05/01 02:27:17;;;;;;;7.32;4.75;;;;;;;13.80;38.92;97749.72;5258525;27;20006;-43
2024/05/01 02:29:47;;;;;;;8.32;4.95;;;;;;;13.82;38.80;97742.28;5251274;27;20493;-42
2024/05/01 02:32:17;;;;;;;9.00;5.22;;;;;;;13.73;38.88;97741.25;5259054;27;20021;-44
2024/05/01 02:34:46;;;;;;;6.22;5.30;;;;;;;13.74;38.87;97741.00;5271024;26;20922;-44
2024/05/01 02:37:13;;;;;;;5.30;3.97;;;;;;;13.72;39.28;97744.97;5395992;26;20562;-43
2024/05/01 02:39:42;;;;;;;7.60;4.68;;;;;;;13.75;38.68;97739.13;5398349;26;20354;-43
2024/05/01 02:42:12;;;;;;;7.03;4.57;;;;;;;13.70;38.65;97723.19;5397779;26;20538;-44
2024/05/01 02:44:39;;;;;;;6.18;5.00;;;;;;;13.67;39.18;97737.03;5397302;26;20465;-44
2024/05/01 02:47:09;;;;;;;7.28;5.07;;;;;;;13.62;38.92;97732.50;5399311;26;19999;-44
2024/05/01 02:49:38;;;;;;;7.20;4.43;;;;;;;13.60;38.99;97722.13;5399685;26;20965;-43
2024/05/01 02:52:08;;;;;;;8.77;4.40;;;;;;;13.61;38.83;97728.22;5394314;26;20007;-45
2024/05/01 02:54:35;;;;;;;5.93;4.28;;;;;;;13.59;38.94;97720.53;5398738;26;21673;-43
2024/05/01 02:57:05;;;;;;;6.88;4.40;;;;;;;13.59;38.75;97717.88;5398768;26;20007;-44
2024/05/01 02:59:31;;;;;;;8.65;5.85;;;;;;;13.54;39.25;97712.59;5399364;26;20014;-43
2024/05/01 03:02:01;;;;;;;8.77;4.47;;;;;;;13.46;39.02;97719.22;5399633;26;20006;-44
2024/05/01 03:04:28;;;;;;;7.35;5.18;;;;;;;13.32;39.09;97714.72;5399600;26;20654;-43
2024/05/01 03:07:00;;;;;;;7.93;4.85;;;;;;;13.34;39.30;97713.38;5398878;26;20007;-44
2024/05/01 03:09:27;;;;;;;9.68;5.07;;;;;;;13.37;39.13;97712.06;5398580;26;20049;-44
2024/05/01 03:11:57;;;;;;;7.55;4.75;;;;;;;13.36;38.95;97713.91;5395664;26;20010;-43
2024/05/01 03:14:24;;;;;;;8.32;5.32;;;;;;;13.41;39.37;97713.13;5395452;26;20000;-43
2024/05/01 03:16:54;;;;;;;7.80;4.72;;;;;;;13.41;39.29;97707.81;5391902;26;20481;-44
2024/05/01 03:19:21;;;;;;;9.77;6.00;;;;;;;13.40;38.80;97703.56;5397220;26;21762;-44
2024/05/01 03:21:50;;;;;;;8.98;4.18;;;;;;;13.36;39.01;97702.50;5397469;26;20007;-43
2024/05/01 03:24:20;;;;;;;8.05;5.28;;;;;;;13.35;39.06;97707.03;5396809;26;20003;-43
2024/05/01 03:26:49;;;;;;;8.15;5.28;;;;;;;13.36;39.04;97702.50;5398199;26;20019;-43
2024/05/01 03:29:19;;;;;;;7.80;5.22;;;;;;;13.29;39.29;97701.97;5397108;26;20456;-43
2024/05/01 03:31:46;;;;;;;7.53;5.57;;;;;;;13.18;39.15;97694.00;5398298;26;20415;-44
2024/05/01 03:34:16;;;;;;;10.43;5.30;;;;;;;13.14;39.37;97697.47;5396596;26;20514;-44
2024/05/01 03:36:43;;;;;;;5.95;4.65;;;;;;;13.11;39.37;97692.69;5397938;26;19999;-44
2024/05/01 03:39:12;;;;;;;8.32;4.47;;;;;;;13.15;39.43;97693.75;5395250;26;20018;-44
2024/05/01 03:41:44;;;;;;;7.60;5.68;;;;;;;13.15;39.49;97694.53;5397173;26;20825;-44
2024/05/01 03:44:14;;;;;;;7.68;4.82;;;;;;;13.18;38.82;97690.56;5395001;26;20995;-43
2024/05/01 03:46:44;;;;;;;7.97;4.78;;;;;;;13.18;38.80;97680.75;5395590;26;21066;-46
2024/05/01 03:49:13;;;;;;;8.07;5.80;;;;;;;13.16;38.98;97682.88;5398621;26;20054;-43
2024/05/01 03:51:44;;;;;;;8.27;4.90;;;;;;;13.07;39.08;97681.81;5397924;26;20014;-44
2024/05/01 03:54:13;;;;;;;7.85;5.32;;;;;;;13.05;39.23;97681.31;5398737;26;20084;-43
2024/05/01 03:56:46;;;;;;;6.55;5.85;;;;;;;13.06;39.08;97677.56;5396726;26;20015;-43
2024/05/01 03:59:15;;;;;;;7.85;5.20;;;;;;;13.05;39.48;97676.00;5398864;26;20000;-44
2024/05/01 04:01:42;;;;;;;6.95;4.63;;;;;;;12.90;39.62;97676.75;5394085;26;20000;-43
2024/05/01 04:04:12;;;;;;;8.15;5.50;;;;;;;12.84;39.32;97670.66;5394450;26;20575;-43
2024/05/01 04:06:43;;;;;;;7.32;4.43;;;;;;;12.75;39.55;97666.94;5392590;26;20008;-43
2024/05/01 04:09:13;;;;;;;8.40;5.40;;;;;;;12.79;39.36;97678.59;5394467;26;20003;-44
2024/05/01 04:11:46;;;;;;;6.10;4.72;;;;;;;12.80;39.47;97680.22;5391183;26;20082;-43
2024/05/01 04:14:15;;;;;;;7.03;4.70;;;;;;;12.84;39.37;97673.31;5393738;26;20000;-43
2024/05/01 04:16:45;;;;;;;5.47;4.75;;;;;;;12.89;39.41;97670.66;5395130;26;20000;-43
2024/05/01 04:19:14;;;;;;;9.20;4.55;;;;;;;12.93;39.49;97678.09;5393010;26;20000;-44
2024/05/01 04:21:44;;;;;;;8.23;4.95;;;;;;;12.89;39.24;97686.56;5398481;26;20012;-44
2024/05/01 04:24:13;;;;;;;6.32;4.45;;;;;;;12.84;39.42;97680.47;5398905;26;20402;-44
2024/05/01 04:26:46;;;;;;;6.80;5.28;;;;;;;12.92;39.33;97676.50;5401485;26;20539;-43
2024/05/01 04:29:15;;;;;;;8.20;4.82;;;;;;;12.90;39.31;97679.41;5399453;26;22567;-43
2024/05/01 04:31:45;;;;;;;7.70;4.63;;;;;;;12.88;39.69;97677.03;5401928;26;20014;-44
2024/05/01 04:34:14;;;;;;;10.27;5.93;;;;;;;12.82;39.70;97677.31;5399150;26;22529;-43
2024/05/01 04:36:44;;;;;;;8.38;5.13;;;;;;;12.83;39.88;97670.91;5399750;26;19999;-43
2024/05/01 04:39:13;;;;;;;6.13;4.85;;;;;;;12.90;39.70;97682.06;5400645;26;22127;-44
2024/05/01 04:41:45;;;;;;;8.07;4.90;;;;;;;12.95;39.61;97674.13;5400103;26;20576;-43
2024/05/01 04:44:15;;;;;;;6.07;4.68;;;;;;;13.01;39.16;97674.91;5397896;26;20011;-44
2024/05/01 04:46:44;;;;;;;8.07;5.47;;;;;;;13.07;39.29;97674.66;5399740;26;20072;-44
2024/05/01 04:49:14;;;;;;;6.07;4.60;;;;;;;13.11;39.21;97669.63;5398880;26;20015;-44
2024/05/01 04:51:43;;;;;;;6.22;4.65;;;;;;;13.11;39.09;97674.13;5400057;26;20007;-43
2024/05/01 04:54:13;;;;;;;6.65;4.82;;;;;;;13.15;39.59;97672.53;5398761;26;20007;-44
2024/05/01 04:56:45;;;;;;;7.70;4.25;;;;;;;13.21;39.36;97669.63;5395149;26;20023;-43
2024/05/01 04:59:15;;;;;;;6.90;4.93;;;;;;;13.31;39.22;97674.13;5401003;26;20022;-43
2024/05/01 05:01:45;;;;;;;7.53;5.10;;;;;;;13.41;38.74;97670.66;5400200;26;20018;-43
2024/05/01 05:04:14;;;;;;;8.13;4.78;;;;;;;13.45;38.83;97664.56;5401937;26;20084;-43
2024/05/01 05:06:44;;;;;;;8.02;4.75;;;;;;;13.56;38.64;97664.53;5400214;26;20014;-44
2024/05/01 05:09:13;;;;;;;8.27;5.82;;;;;;;13.63;38.69;97665.91;5400913;26;20117;-44
2024/05/01 05:11:46;;;;;;;7.57;5.43;;;;;;;13.70;38.55;97662.16;5401209;26;20003;-43
2024/05/01 05:14:15;;;;;;;8.50;5.30;;;;;;;13.77;38.34;97657.34;5399452;26;19995;-43
2024/05/01 05:16:45;;;;;;;7.40;5.88;;;;;;;13.86;38.36;97662.91;5401402;26;19996;-44
2024/05/01 05:19:14;;;;;;;8.38;5.03;;;;;;;13.95;38.24;97656.00;5399312;26;20325;-43
2024/05/01 05:21:44;;;;;;;7.53;4.85;;;;;;;13.99;38.30;97651.72;5401402;26;20018;-43
2024/05/01 05:24:13;;;;;;;7.95;5.60;;;;;;;14.09;37.91;97654.34;5400944;26;20011;-45
2024/05/01 05:26:45;;;;;;;7.80;4.85;;;;;;;14.16;37.89;97651.38;5400220;26;20654;-44
2024/05/01 05:29:15;;;;;;;8.57;5.18;;;;;;;14.26;37.71;97651.34;5400499;26;20756;-43
2024/05/01 05:31:45;;;;;;;7.43;5.28;;;;;;;14.36;37.63;97651.28;5401642;26;20011;-43
2024/05/01 05:34:15;;;;;;;8.40;5.40;;;;;;;14.44;37.57;97649.13;5400765;26;21075;-43
2024/05/01 05:36:45;;;;;;;7.28;5.47;;;;;;;14.53;37.51;97650.97;5399099;26;22233;-44
2024/05/01 05:39:14;;;;;;;10.23;5.47;;;;;;;14.58;37.40;97642.16;5399614;26;21915;-43
2024/05/01 05:41:46;;;;;;;7.32;5.85;;;;;;;14.69;37.12;97635.72;5387066;26;20006;-45
2024/05/01 05:44:16;;;;;;;7.60;5.15;;;;;;;14.80;37.00;97630.34;5398419;26;21562;-44
2024/05/01 05:46:45;;;;;;;9.95;5.00;;;;;;;14.93;37.14;97632.34;5398867;26;22676;-44
2024/05/01 05:49:15;;;;;;;10.63;5.50;;;;;;;15.06;36.64;97629.06;5377890;26;22264;-44
2024/05/01 05:51:46;;;;;;;7.63;5.45;;;;;;;15.20;36.31;97631.88;5397834;26;20767;-44
2024/05/01 05:54:15;;;;;;;8.70;5.82;;;;;;;15.30;36.30;97631.00;5400130;26;21594;-44
2024/05/01 05:56:47;;;;;;;7.47;4.95;;;;;;;15.43;36.08;97624.22;5398192;26;21611;-44
2024/05/01 05:59:17;;;;;;;8.60;5.18;;;;;;;15.53;36.02;97618.78;5397145;26;20741;-44
2024/05/01 06:01:46;;;;;;;7.28;4.63;;;;;;;15.67;36.22;97611.72;5397247;26;20543;-44
2024/05/01 06:04:16;;;;;;;9.55;5.38;;;;;;;15.77;35.98;97602.84;5399679;26;22179;-43
2024/05/01 06:06:46;;;;;;;6.78;5.18;;;;;;;15.91;35.79;97603.72;5376730;26;20012;-43
2024/05/01 06:09:15;;;;;;;8.68;5.60;;;;;;;16.04;35.45;97596.09;5399877;26;20441;-44
2024/05/01 06:11:47;;;;;;;8.85;5.30;;;;;;;16.17;35.21;97590.13;5400507;26;20009;-44
2024/05/01 06:14:14;;;;;;;8.68;5.53;;;;;;;16.30;34.70;97591.28;5416572;26;21245;-44
2024/05/01 06:16:44;;;;;;;11.52;6.35;;;;;;;16.42;34.96;97591.63;5401432;26;20445;-43
2024/05/01 06:19:13;;;;;;;10.23;5.55;;;;;;;16.57;35.22;97589.81;5399362;26;20406;-44
2024/05/01 06:21:43;;;;;;;8.30;5.20;;;;;;;16.71;34.78;97590.66;5398864;26;20501;-43
2024/05/01 06:24:13;;;;;;;9.63;5.53;;;;;;;16.78;34.91;97587.63;5399551;26;20081;-42
2024/05/01 06:26:43;;;;;;;8.70;5.40;;;;;;;16.94;34.86;97590.88;5400284;26;22520;-44
2024/05/01 06:29:15;;;;;;;7.47;4.97;;;;;;;17.12;34.17;97581.22;5399630;26;20493;-44
2024/05/01 06:31:45;;;;;;;12.20;5.90;;;;;;;17.23;34.19;97578.06;5399881;26;20653;-43
2024/05/01 06:34:14;;;;;;;7.78;5.18;;;;;;;17.33;34.35;97581.63;5398955;26;20007;-42
2024/05/01 06:36:44;;;;;;;7.38;5.03;;;;;;;17.47;34.01;97570.97;5400266;26;20018;-44
2024/05/01 06:39:13;;;;;;;8.18;4.97;;;;;;;17.60;33.83;97565.66;5388053;26;20073;-44
2024/05/01 06:41:43;;;;;;;11.55;6.20;;;;;;;17.77;33.45;97567.72;5392338;26;20755;-44
2024/05/01 06:44:15;;;;;;;9.40;5.43;;;;;;;17.91;33.03;97574.94;5398764;26;20014;-44
2024/05/01 06:46:44;;;;;;;9.45;5.13;;;;;;;18.03;33.04;97563.75;5396573;26;20511;-44
2024/05/01 06:49:14;;;;;;;7.30;4.43;;;;;;;18.21;32.88;97554.00;5398119;26;20014;-44
2024/05/01 06:51:43;;;;;;;9.40;5.38;;;;;;;18.34;32.90;97562.00;5394572;26;21955;-44
2024/05/01 06:54:13;;;;;;;10.68;5.13;;;;;;;18.50;32.43;97549.06;5399630;26;20701;-44
2024/05/01 06:56:42;;;;;;;9.75;4.95;;;;;;;18.64;32.49;97549.00;5378671;26;20479;-44
2024/05/01 06:59:15;;;;;;;10.18;5.18;;;;;;;18.75;32.58;97552.22;5293537;27;20558;-43
2024/05/01 07:01:44;;;;;;;8.77;5.80;;;;;;;18.83;32.68;97548.00;5291283;26;20372;-44
2024/05/01 07:04:14;;;;;;;8.88;5.13;;;;;;;18.94;32.52;97544.00;5293367;26;20083;-43
2024/05/01 07:06:43;;;;;;;8.02;5.28;;;;;;;18.96;32.57;97533.81;5291217;27;20080;-44
2024/05/01 07:09:13;;;;;;;6.75;5.25;;;;;;;19.05;32.75;97542.66;5290501;26;20080;-44
2024/05/01 07:11:42;;;;;;;10.80;5.82;;;;;;;19.18;32.70;97545.53;5292772;26;20124;-44
2024/05/01 07:14:15;;;;;;;8.43;5.70;;;;;;;19.21;32.99;97535.00;5290721;26;20065;-44
2024/05/01 07:16:44;;;;;;;9.07;5.57;;;;;;;19.32;33.04;97530.16;5312829;26;20003;-43
2024/05/01 07:19:14;;;;;;;6.38;5.18;;;;;;;19.42;32.93;97529.06;5398382;26;20003;-44
2024/05/01 07:21:43;;;;;;;8.70;5.50;;;;;;;19.54;32.70;97521.22;5399682;26;20092;-44
2024/05/01 07:24:13;;;;;;;8.10;5.38;;;;;;;19.66;32.61;97518.78;5398813;26;20022;-44
2024/05/01 07:26:42;;;;;;;6.55;5.05;;;;;;;19.75;32.51;97518.00;5399247;26;20319;-43
2024/05/01 07:29:15;;;;;;;8.77;5.70;;;;;;;19.90;32.38;97511.44;5397857;26;21548;-43
2024/05/01 07:31:47;;;;;;;10.15;5.40;;;;;;;20.05;32.34;97516.31;5399105;26;20550;-44
2024/05/01 07:34:17;;;;;;;9.60;5.88;;;;;;;20.22;32.17;97508.25;5375738;26;20460;-44
2024/05/01 07:36:47;;;;;;;10.43;5.65;;;;;;;20.41;31.96;97512.56;5399860;26;20000;-43
2024/05/01 07:39:16;;;;;;;8.30;5.32;;;;;;;20.53;31.92;97509.19;5382284;26;20441;-43
2024/05/01 07:41:46;;;;;;;9.63;5.50;;;;;;;20.68;32.12;97508.69;5398462;26;20006;-44
2024/05/01 07:44:18;;;;;;;9.30;5.55;;;;;;;20.86;31.77;97503.28;5394616;26;20010;-43
2024/05/01 07:46:47;;;;;;;10.32;5.32;;;;;;;21.02;31.62;97499.00;5393377;26;20000;-44
2024/05/01 07:49:17;;;;;;;9.45;5.47;;;;;;;21.10;31.38;97498.19;5400664;26;20014;-44
2024/05/01 07:51:47;;;;;;;7.70;5.53;;;;;;;21.19;31.21;97492.78;5385117;26;20016;-43
2024/05/01 07:54:16;;;;;;;10.57;5.53;;;;;;;21.12;31.11;97490.59;5390945;26;20016;-44
2024/05/01 07:56:46;;;;;;;8.10;5.28;;;;;;;21.15;31.17;97487.25;5399261;26;21911;-44
2024/05/01 07:59:18;;;;;;;7.50;5.43;;;;;;;21.23;30.86;97482.16;5396470;26;20084;-45
2024/05/01 08:01:47;;;;;;;7.47;5.03;;;;;;;21.27;31.17;97477.72;5389328;26;20365;-44
2024/05/01 08:04:17;;;;;;;9.90;5.10;;;;;;;21.28;30.89;97472.03;5401564;26;20024;-44
2024/05/01 08:06:47;;;;;;;9.57;4.95;;;;;;;21.30;30.79;97479.75;5392804;26;22128;-46
2024/05/01 08:09:16;;;;;;;7.55;4.78;;;;;;;21.30;30.83;97474.38;5396034;26;20665;-46
2024/05/01 08:11:46;;;;;;;9.55;5.10;;;;;;;21.34;30.73;97472.63;5379488;26;21088;-45
2024/05/01 08:14:18;;;;;;;9.98;4.32;;;;;;;21.36;30.40;97470.38;5406820;26;22346;-44
2024/05/01 08:16:47;;;;;;;9.25;5.03;;;;;;;21.42;30.20;97460.28;5396859;26;20959;-45
2024/05/01 08:19:19;;;;;;;7.50;4.90;;;;;;;21.52;30.19;97466.03;5401851;26;20018;-46
2024/05/01 08:21:48;;;;;;;10.65;4.90;;;;;;;21.64;30.66;97461.88;5401445;26;22160;-46
2024/05/01 08:24:18;;;;;;;8.43;4.85;;;;;;;21.70;30.07;97461.38;5401442;26;20069;-45
2024/05/01 08:26:48;;;;;;;8.63;4.60;;;;;;;21.72;30.08;97461.81;5402037;26;20338;-45
2024/05/01 08:29:20;;;;;;;7.63;4.20;;;;;;;21.77;30.66;97454.66;5402981;26;20072;-43
2024/05/01 08:31:49;;;;;;;9.20;4.28;;;;;;;21.85;29.58;97453.81;5403775;26;19995;-44
2024/05/01 08:34:19;;;;;;;6.95;3.90;;;;;;;21.95;29.79;97452.66;5402809;26;21331;-44
2024/05/01 08:36:49;;;;;;;10.70;4.88;;;;;;;22.06;29.44;97446.50;5398992;26;22842;-43
2024/05/01 08:39:18;;;;;;;10.52;4.90;;;;;;;22.12;29.33;97449.81;5390901;26;20062;-44
2024/05/01 08:41:50;;;;;;;10.27;4.45;;;;;;;22.10;29.14;97443.94;5394192;26;20061;-44
2024/05/01 08:44:22;;;;;;;9.80;4.85;;;;;;;22.08;29.28;97443.50;5403605;26;20416;-44
2024/05/01 08:46:52;;;;;;;14.20;4.60;;;;;;;22.06;29.06;97438.44;5404885;26;20003;-43
2024/05/01 08:49:26;;;;;;;9.05;4.50;;;;;;;22.09;29.64;97434.31;5403424;26;20379;-44
2024/05/01 08:52:04;;;;;;;13.85;5.05;;;;;;;22.12;28.60;97431.00;5383346;26;21095;-41
2024/05/01 08:54:34;;;;;;;9.07;4.07;;;;;;;22.17;28.73;97430.00;5395884;26;20882;-44
2024/05/01 08:57:04;;;;;;;13.80;4.43;;;;;;;22.30;29.26;97428.94;5397256;26;21598;-43
2024/05/01 08:59:39;;;;;;;12.40;4.53;;;;;;;22.43;28.13;97427.06;5401449;26;20053;-45
2024/05/01 09:02:18;;;;;;;15.32;4.60;;;;;;;22.50;27.62;97419.22;5389342;26;22626;-44
2024/05/01 09:04:48;;;;;;;12.85;4.38;;;;;;;22.61;27.73;97417.66;5400477;26;20707;-44
2024/05/01 09:07:18;;;;;;;11.90;5.30;;;;;;;22.78;28.32;97422.09;5386818;26;20093;-43
2024/05/01 09:09:47;;;;;;;11.23;5.30;;;;;;;22.87;27.79;97416.59;5384336;26;20381;-44
2024/05/01 09:12:17;;;;;;;17.23;5.50;;;;;;;22.97;28.09;97421.53;5381929;26;21832;-44
2024/05/01 09:14:49;;;;;;;11.65;4.68;;;;;;;23.11;28.25;97417.69;5389302;26;20880;-44
2024/05/01 09:17:21;;;;;;;14.93;5.18;;;;;;;23.27;27.79;97409.72;5398089;26;20363;-43
2024/05/01 09:19:51;;;;;;;8.85;4.22;;;;;;;23.29;27.93;97408.28;5386601;26;20016;-45
2024/05/01 09:22:24;;;;;;;10.95;4.50;;;;;;;23.47;27.52;97397.25;5388991;26;19996;-44
2024/05/01 09:24:54;;;;;;;8.98;4.35;;;;;;;23.55;27.58;97404.41;5391197;26;20019;-44
2024/05/01 09:27:25;;;;;;;11.27;4.32;;;;;;;23.65;27.48;97397.75;5400822;26;20465;-44
2024/05/01 09:29:57;;;;;;;11.82;4.30;;;;;;;23.69;26.82;97388.66;5388437;26;20007;-44
2024/05/01 09:32:26;;;;;;;14.45;4.57;;;;;;;23.81;26.74;97391.31;5373292;26;21408;-44
2024/05/01 09:34:56;;;;;;;13.10;4.18;;;;;;;23.88;26.76;97389.94;5392725;26;20071;-45
2024/05/01 09:37:26;;;;;;;11.73;4.05;;;;;;;23.88;26.59;97385.31;5389769;26;20019;-43
2024/05/01 09:40:00;;;;;;;12.20;3.92;;;;;;;23.97;26.80;97387.88;5379154;26;20000;-44
2024/05/01 09:42:30;;;;;;;11.63;4.20;;;;;;;24.00;26.35;97392.59;5380300;26;23091;-44
2024/05/01 09:45:07;;;;;;;14.65;4.47;;;;;;;23.93;26.13;97379.69;5397792;26;20904;-44
2024/05/01 09:47:33;;;;;;;16.10;5.30;;;;;;;24.06;26.18;97379.63;5397887;26;20513;-44
2024/05/01 09:50:04;;;;;;;13.73;4.68;;;;;;;24.01;25.77;97378.00;5400485;26;20050;-44
2024/05/01 09:52:34;;;;;;;12.88;4.65;;;;;;;24.02;25.73;97384.16;5391305;26;21460;-43
2024/05/01 09:55:05;;;;;;;14.07;4.47;;;;;;;23.92;25.17;97374.63;5401047;26;20014;-45
2024/05/01 09:57:37;;;;;;;;;;;;;;;23.94;25.12;97373.19;5395953;26;20086;-44
2024/05/01 10:00:11;;;;;;;13.32;4.28;;;;;;;24.00;24.60;97363.69;5396727;26;20111;-44
2024/05/01 10:02:42;;;;;;;16.02;4.47;;;;;;;24.14;24.91;97363.28;5392052;26;20026;-43
2024/05/01 10:05:14;;;;;;;12.70;4.88;;;;;;;24.20;24.90;97358.41;5397830;26;20004;-44
2024/05/01 10:07:44;;;;;;;14.48;4.40;;;;;;;24.18;24.35;97358.78;5400098;26;20583;-44
2024/05/01 10:10:14;;;;;;;14.98;4.60;;;;;;;24.09;24.10;97360.84;5389636;26;22149;-44
2024/05/01 10:13:05;;;;;;;13.43;4.38;;;;;;;23.97;24.25;97352.81;5392864;26;21832;-44
2024/05/01 10:15:39;;;;;;;15.52;4.78;;;;;;;23.99;24.40;97345.97;5397016;26;20417;-43
2024/05/01 10:18:10;;;;;;;17.60;4.47;;;;;;;24.17;24.61;97348.34;5382144;26;21404;-44
2024/05/01 10:20:48;;;;;;;13.00;3.78;;;;;;;24.28;24.52;97344.00;5385957;26;20541;-44
2024/05/01 10:23:19;;;;;;;17.70;4.75;;;;;;;24.25;23.84;97344.69;5393889;26;21463;-45
2024/05/01 10:25:50;;;;;;;16.50;4.50;;;;;;;24.17;23.48;97340.25;5399496;26;21877;-43
2024/05/01 10:28:21;;;;;;;17.38;4.43;;;;;;;24.10;23.52;97338.16;5392857;26;20463;-44
2024/05/01 10:30:56;;;;;;;14.40;4.75;;;;;;;24.09;23.37;97333.88;5389602;26;20986;-44
2024/05/01 10:33:27;;;;;;;16.90;5.05;;;;;;;24.15;23.09;97321.72;5388359;26;20046;-44
2024/05/01 10:35:58;;;;;;;17.10;4.63;;;;;;;24.24;23.44;97324.25;5397096;26;20709;-45
2024/05/01 10:38:27;;;;;;;18.83;5.35;;;;;;;24.27;23.68;97331.63;5396910;26;20014;-44
2024/05/01 10:40:57;;;;;;;12.80;4.35;;;;;;;24.38;24.04;97323.81;5395655;26;20015;-44
2024/05/01 10:43:26;;;;;;;13.57;4.60;;;;;;;24.32;23.60;97323.25;5394756;26;20000;-44
2024/05/01 10:45:59;;;;;;;12.77;4.55;;;;;;;24.32;23.16;97317.88;5385863;26;20337;-44
2024/05/01 10:48:28;;;;;;;12.88;4.13;;;;;;;24.42;23.13;97313.09;5397020;26;20122;-44
2024/05/01 10:50:58;;;;;;;13.65;4.10;;;;;;;24.56;22.92;97299.97;5405043;26;19995;-44
2024/05/01 10:53:27;;;;;;;14.77;4.38;;;;;;;24.68;23.03;97293.66;5387403;26;20448;-44
2024/05/01 10:55:57;;;;;;;14.35;3.95;;;;;;;24.66;21.21;97296.72;5397979;26;20516;-44
2024/05/01 10:58:26;;;;;;;12.93;4.30;;;;;;;24.64;20.86;97290.88;5389123;26;20477;-43
2024/05/01 11:01:00;;;;;;;13.45;3.83;;;;;;;24.71;20.89;97284.84;5389561;26;20000;-44
2024/05/01 11:03:30;;;;;;;16.52;5.20;;;;;;;24.76;20.79;97281.88;5385958;26;21023;-44
2024/05/01 11:06:00;;;;;;;17.85;4.28;;;;;;;24.86;20.74;97284.03;5374483;26;20004;-44
2024/05/01 11:08:30;;;;;;;14.82;4.38;;;;;;;24.61;19.80;97269.19;5380631;26;20015;-44
2024/05/01 11:10:59;;;;;;;16.30;4.75;;;;;;;24.70;19.72;97278.69;5368988;26;20000;-44
2024/05/01 11:13:30;;;;;;;15.55;4.10;;;;;;;24.85;18.92;97268.19;5401447;26;20519;-44
2024/05/01 11:16:05;;;;;;;12.63;4.03;;;;;;;24.91;19.18;97264.09;5393827;26;20004;-44
2024/05/01 11:18:34;;;;;;;17.00;4.80;;;;;;;24.96;18.81;97254.91;5384985;26;20753;-44
2024/05/01 11:21:04;;;;;;;12.65;3.60;;;;;;;24.93;19.07;97259.09;5398074;26;20410;-45
2024/05/01 11:23:33;;;;;;;18.63;4.10;;;;;;;24.90;18.52;97249.78;5399806;26;19999;-45
2024/05/01 11:26:03;;;;;;;11.95;3.75;;;;;;;25.11;18.08;97246.75;5398241;26;20334;-45
2024/05/01 11:28:33;;;;;;;14.20;4.10;;;;;;;25.14;18.23;97245.28;5398715;26;20014;-44
2024/05/01 11:31:05;;;;;;;12.65;3.80;;;;;;;24.71;18.15;97247.84;5397536;26;20474;-44
2024/05/01 11:33:34;;;;;;;11.45;3.90;;;;;;;24.88;17.99;97224.28;5397523;26;20015;-45
2024/05/01 11:36:04;;;;;;;13.23;3.70;;;;;;;24.87;17.56;97228.09;5397558;26;20012;-44
2024/05/01 11:38:37;;;;;;;13.00;4.10;;;;;;;24.99;17.92;97221.78;5397760;26;20422;-44
2024/05/01 11:41:06;;;;;;;15.07;4.22;;;;;;;25.11;17.58;97221.66;5369453;26;20000;-44
2024/05/01 11:43:36;;;;;;;10.77;3.35;;;;;;;25.18;17.55;97215.63;5396592;26;20343;-44